• Join FlightAware (Why Join?)
  • Login
  • US Flag 
10:53PM EDT


 

Airport Tracker/Info


-or-


 

Live Flight TrackerFlight Track Log ✈ SWA385 ✈ 27-Jun-2013 ✈ KIAD - KMDW

Flight Track Log - Related Links

Times and Time Zones

All times are in EDT time to prevent confusion due to time zone crossing. See the SWA385 flight status page for this flight to view local times or setup timezone preferences in your user account.

Time Position Orientation Groundspeed Altitude Reporting Facility
EDT Latitude Longitude Course Direction KTS MPH feet Rate Location/Type
04:56PM 38.9500 -77.5167 288° West 162 186 2,100  Level Potomac TRACON
04:58PM 38.9100 -77.6672 251° West 225 259 6,000 2,400 Climbing Washington Center
04:59PM 38.8917 -77.7600 256° West 265 305 9,300 2,520 Climbing Washington Center
05:00PM 38.8961 -77.8586 273° West 276 318 11,100 2,160 Climbing Washington Center
05:01PM 38.9150 -77.9661 283° West 308 354 13,700 2,640 Climbing Washington Center
05:02PM 38.9285 -78.1473 288° West  Level FlightAware Approximate
05:02PM 38.9375 -78.0869 283° West 333 383 16,500  Level Washington Center
05:03PM 38.9597 -78.2183 282° West 358 412 19,500 2,700 Climbing Washington Center
05:04PM 38.9650 -78.3547 273° West 376 433 21,900 2,340 Climbing Washington Center
05:05PM 38.9700 -78.4939 273° West 392 451 24,300 2,040 Climbing Washington Center
05:06PM 38.9728 -78.6381 271° West 397 457 26,100 1,800 Climbing Washington Center
05:07PM 38.9792 -78.7906 273° West 414 476 27,900 1,800 Climbing Washington Center
05:08PM 38.9836 -78.9431 272° West 426 490 29,700 1,920 Climbing Washington Center
05:09PM 38.9853 -79.0981 271° West 431 496 31,800 1,800 Climbing Washington Center
05:10PM 38.9911 -79.2506 273° West 436 502 33,400 1,680 Climbing Washington Center
05:11PM 38.9947 -79.4056 272° West 436 502 35,200 1,740 Climbing Washington Center
05:12PM 38.9981 -79.5556 272° West 436 502 36,900 900 Climbing Washington Center
05:13PM 39.0014 -79.7106 272° West 436 502 37,000  Climbing Washington Center
05:14PM 39.0022 -79.8603 270° West 436 502 37,000 420 Level Washington Center
05:15PM 39.0036 -80.0206 271° West 417 480 38,000 420 Climbing Indianapolis Center
05:16PM 39.0064 -80.1739 271° West 418 481 38,000  Level Indianapolis Center
05:17PM 39.0072 -80.3211 270° West 413 475 38,000  Level Indianapolis Center
05:18PM 39.0150 -80.4678 274° West 414 476 38,000  Level Indianapolis Center
05:19PM 39.0844 -80.6278 299° West 425 489 38,000  Level Indianapolis Center
05:20PM 39.1408 -80.7586 299° West 421 484 38,000  Level Indianapolis Center
05:21PM 39.2000 -80.8900 300° West 425 489 38,000  Level Indianapolis Center
05:22PM 39.2575 -81.0189 300° West 419 482 38,000  Level Indianapolis Center
05:24PM 39.3150 -81.1506 299° West 424 488 38,000  Level Indianapolis Center
05:25PM 39.3717 -81.2800 300° West 417 480 38,000  Level Indianapolis Center
05:26PM 39.4400 -81.4361 300° West 416 479 38,000  Level Indianapolis Center
05:27PM 39.4958 -81.5656 299° West 414 476 38,000  Level Indianapolis Center
05:28PM 39.5522 -81.6967 299° West 417 480 38,000  Level Indianapolis Center
05:29PM 39.6086 -81.8239 300° West 411 473 38,000  Level Indianapolis Center
05:30PM 39.6622 -81.9528 298° West 407 468 38,000  Level Indianapolis Center
05:31PM 39.6986 -82.1208 286° West 405 466 38,000  Level Indianapolis Center
05:32PM 39.7269 -82.2447 287° West 405 466 38,000  Level Indianapolis Center
05:33PM 39.7928 -82.3933 300° West 406 467 38,000  Level Indianapolis Center
05:34PM 39.8503 -82.5208 300° West 406 467 38,000  Level Indianapolis Center
05:35PM 39.9056 -82.6481 300° West 401 461 38,000  Level Indianapolis Center
05:36PM 39.9603 -82.7736 300° West 397 457 38,000  Level Indianapolis Center
05:37PM 40.0158 -82.8986 300° West 398 458 38,000  Level Indianapolis Center
05:38PM 40.0694 -83.0219 300° West 392 451 38,000  Level Indianapolis Center
05:39PM 40.1322 -83.1661 300° West 391 450 38,000  Level Indianapolis Center
05:40PM 40.1858 -83.2886 300° West 388 447 38,000  Level Indianapolis Center
05:41PM 40.2378 -83.4117 299° West 386 444 38,000  Level Indianapolis Center
05:42PM 40.2903 -83.5342 299° West 385 443 38,000  Level Indianapolis Center
05:43PM 40.3436 -83.6569 300° West 387 445 38,000  Level Indianapolis Center
05:44PM 40.3956 -83.7806 299° West 386 444 38,000  Level Indianapolis Center
05:45PM 40.4561 -83.9233 299° West 383 441 38,000 -300 Level Indianapolis Center
05:46PM 40.5081 -84.0450 299° West 380 437 37,400 -1,380 Descending Indianapolis Center
05:47PM 40.5578 -84.1661 298° West 376 433 35,200 -2,040 Descending Indianapolis Center
05:48PM 40.6083 -84.2858 299° West 372 428 33,300 -1,920 Descending Indianapolis Center
05:49PM 40.6608 -84.4103 299° West 384 442 31,300 -1,620 Descending Indianapolis Center
05:50PM 40.7117 -84.5361 298° West 387 445 30,000 -660 Descending Indianapolis Center
05:51PM 40.7647 -84.6628 299° West 391 450 30,000  Level Indianapolis Center
05:52PM 40.8244 -84.8083 299° West 384 442 30,000 -180 Level Indianapolis Center
05:53PM 40.8650 -84.8828 306° West 390 449 29,700 -780 Descending Chicago Center
05:54PM 40.9431 -84.9775 318° Northwest 380 437 28,700 -1,140 Descending Chicago Center
05:55PM 41.0211 -85.0767 316° Northwest 387 445 27,400 -1,800 Descending Chicago Center
05:56PM 41.1008 -85.1800 316° Northwest 395 455 25,000 -2,580 Descending Chicago Center
05:57PM 41.1756 -85.3289 304° West 402 463 22,100 -2,580 Descending Chicago Center
05:58PM 41.2356 -85.4481 304° West 391 450 19,700 -2,400 Descending Chicago Center
05:59PM 41.2908 -85.5594 303° West 368 423 17,200 -1,860 Descending Chicago Center
06:00PM 41.3450 -85.6658 304° West 349 402 15,900 -600 Descending Chicago Center
06:01PM 41.3961 -85.7697 303° West 337 388 16,000  Climbing Chicago Center
06:03PM 41.4461 -85.8697 304° West 326 375 16,000  Level Chicago Center
06:04PM 41.4994 -85.9769 304° West 341 392 16,000 -120 Level Chicago Center
06:05PM 41.5239 -86.1272 282° West 354 407 15,800 -1,200 Descending Chicago Center
06:06PM 41.5228 -86.2550 269° West 346 398 13,500 -2,100 Descending Chicago Center
06:07PM 41.5219 -86.3769 270° West 332 382 11,500 -1,500 Descending Chicago Center
06:08PM 41.5211 -86.4942 269° West 316 364 10,400 -780 Descending Chicago Center
06:09PM 41.5217 -86.5958 270° West 276 318 9,900 -240 Descending Chicago Center
06:10PM 41.5206 -86.6928 269° West 263 303 10,000  Climbing Chicago Center
06:11PM 41.5197 -86.8033 269° West 271 312 10,000 -60 Level Chicago Center
06:12PM 41.5192 -86.8958 270° West 254 292 9,900 -840 Descending Chicago Center
06:13PM 41.5167 -86.9997 268° West 237 273 8,300 -1,260 Descending Chicago Center
06:14PM 41.5342 -87.0836 286° West 238 274 7,300 -1,260 Descending Chicago Center
06:15PM 41.5561 -87.1697 289° West 245 282 5,800 -1,440 Descending Chicago Center
06:16PM 41.5786 -87.2589 289° West 254 292 4,400 -960 Descending Chicago Center
06:17PM 41.6017 -87.3461 289° West 253 291 3,900 -240 Descending Chicago Center
06:18PM 41.6275 -87.4478 289° West 247 284 4,000  Climbing Chicago Center
06:19PM 41.6475 -87.5308 288° West 241 277 3,900 -300 Descending Chicago Center
06:20PM 41.6739 -87.5989 297° West 226 260 3,500 -660 Descending Chicago Center
06:21PM 41.7092 -87.6469 315° West 195 224 2,600 -900 Descending Chicago Center
06:22PM 41.7411 -87.6911 314° West 181 208 1,700 -840 Descending Chicago Center
06:23PM 41.7722 -87.7350 314° West 156 180 900 -780 Descending Chicago Center
06:25PM 41.7833 -87.7500 340° North  Level FlightAware Approximate
06:32PM 41.7860 -87.7524 340° North  Level Estimated